Katunayake, Sri Lanka
Current Conditions -  °F | °C
As of 3:10 AM on Thursday 29 Jan 2015 (Local Time) from VCBI Reporting Station
Clear Clear  
Wind Chill: 77°   Ceiling: Unl
Heat Index: 78°   Visibility: 6mi
Dew Point: 72°   Wind: 9mph
Humidity: 83%   Direction: 30°NNE
Pressure: 29.8"   Gusts: NA
Location:  7.17°N, 79.88°E
Report Text: VCBI 282110Z 03008KT CAVOK 25/22 Q1009 NOSIG
Loading
Personal Weather Stations






























Interactive Weather Map New forecast layout! Learn more

10-Day Weather Forecast

Advertisements
Track Severe Weather on mobile